SCO15TU EGAA-EGPH
Flight info
| Callsign | SCO15TU |
|---|---|
| Flight time | 0h 27m |
| Altitude | 19000 |
| Route | BLACA P600 TUNSO |
| Aircraft | A320/M-SDE3FGHIRWY/LB1 |
Departure
| Time | 2026-05-06 18:24 |
|---|---|
| Airport | Belfast International Airport (EGAA) |
Arrival
| Time | 2026-05-06 18:52 |
|---|---|
| Airport | Edinburgh Airport (EGPH) |
| Time | Latitude | Longitude | Altitude | Speed | Heading |
|---|---|---|---|---|---|
| 2026-05-06 18:06 | 54.66193 | -6.21204 | 272 ft | 0 kts | 64° |
| 2026-05-06 18:16 | 54.66190 | -6.21215 | 272 ft | 4 kts | 53° |
| 2026-05-06 18:16 | 54.66189 | -6.21236 | 272 ft | 4 kts | 313° |
| 2026-05-06 18:16 | 54.66176 | -6.21204 | 275 ft | 4 kts | 316° |
| 2026-05-06 18:17 | 54.66168 | -6.21192 | 272 ft | 0 kts | 336° |
| 2026-05-06 18:20 | 54.66176 | -6.21202 | 276 ft | 7 kts | 323° |
| 2026-05-06 18:20 | 54.66158 | -6.21280 | 272 ft | 10 kts | 188° |
| 2026-05-06 18:20 | 54.66075 | -6.21219 | 272 ft | 14 kts | 155° |
| 2026-05-06 18:20 | 54.66018 | -6.21271 | 272 ft | 10 kts | 244° |
| 2026-05-06 18:21 | 54.65970 | -6.21383 | 272 ft | 14 kts | 205° |
| 2026-05-06 18:21 | 54.65874 | -6.21319 | 272 ft | 17 kts | 152° |
| 2026-05-06 18:21 | 54.65788 | -6.21426 | 274 ft | 23 kts | 245° |
| 2026-05-06 18:21 | 54.65700 | -6.21756 | 272 ft | 33 kts | 245° |
| 2026-05-06 18:22 | 54.65601 | -6.22130 | 272 ft | 35 kts | 244° |
| 2026-05-06 18:22 | 54.65496 | -6.22520 | 272 ft | 37 kts | 245° |
| 2026-05-06 18:22 | 54.65386 | -6.22922 | 276 ft | 36 kts | 245° |
| 2026-05-06 18:22 | 54.65294 | -6.23265 | 272 ft | 29 kts | 244° |
| 2026-05-06 18:23 | 54.65228 | -6.23448 | 272 ft | 13 kts | 233° |
| 2026-05-06 18:23 | 54.65262 | -6.23451 | 272 ft | 9 kts | 74° |
| 2026-05-06 18:23 | 54.65298 | -6.23251 | 273 ft | 35 kts | 64° |
| 2026-05-06 18:23 | 54.65524 | -6.22416 | 272 ft | 114 kts | 65° |
| 2026-05-06 18:24 | 54.65945 | -6.20859 | 319 ft | 166 kts | 68° |
| 2026-05-06 18:24 | 54.66477 | -6.19009 | 907 ft | 176 kts | 68° |
| 2026-05-06 18:24 | 54.67030 | -6.17058 | 1693 ft | 185 kts | 68° |
| 2026-05-06 18:24 | 54.67606 | -6.15030 | 2470 ft | 192 kts | 68° |
| 2026-05-06 18:25 | 54.68186 | -6.12898 | 3085 ft | 204 kts | 70° |
| 2026-05-06 18:25 | 54.68735 | -6.10477 | 3503 ft | 229 kts | 72° |
| 2026-05-06 18:25 | 54.69305 | -6.07754 | 4044 ft | 253 kts | 72° |
| 2026-05-06 18:25 | 54.69919 | -6.04774 | 4770 ft | 270 kts | 71° |
| 2026-05-06 18:26 | 54.70561 | -6.01668 | 5723 ft | 278 kts | 71° |
| 2026-05-06 18:26 | 54.71223 | -5.98498 | 6706 ft | 283 kts | 71° |
| 2026-05-06 18:26 | 54.71953 | -5.95317 | 7682 ft | 287 kts | 61° |
| 2026-05-06 18:26 | 54.73044 | -5.92434 | 8605 ft | 293 kts | 54° |
| 2026-05-06 18:27 | 54.74234 | -5.89476 | 9606 ft | 298 kts | 53° |
| 2026-05-06 18:27 | 54.75425 | -5.86540 | 10337 ft | 311 kts | 53° |
| 2026-05-06 18:27 | 54.76730 | -5.83323 | 10770 ft | 332 kts | 53° |
| 2026-05-06 18:27 | 54.78058 | -5.80035 | 11515 ft | 340 kts | 54° |
| 2026-05-06 18:28 | 54.79419 | -5.76650 | 12373 ft | 345 kts | 54° |
| 2026-05-06 18:28 | 54.80793 | -5.73217 | 13230 ft | 349 kts | 54° |
| 2026-05-06 18:28 | 54.82183 | -5.69730 | 14047 ft | 354 kts | 54° |
| 2026-05-06 18:28 | 54.83592 | -5.66193 | 14793 ft | 358 kts | 54° |
| 2026-05-06 18:29 | 54.84550 | -5.63786 | 15292 ft | 361 kts | 54° |
| 2026-05-06 18:29 | 54.85983 | -5.60176 | 16030 ft | 365 kts | 54° |
| 2026-05-06 18:29 | 54.87416 | -5.56567 | 16754 ft | 370 kts | 53° |
| 2026-05-06 18:29 | 54.88903 | -5.52827 | 17490 ft | 374 kts | 53° |
| 2026-05-06 18:30 | 54.90371 | -5.49132 | 18192 ft | 379 kts | 53° |
| 2026-05-06 18:30 | 54.91874 | -5.45342 | 18763 ft | 384 kts | 53° |
| 2026-05-06 18:30 | 54.93408 | -5.41459 | 18945 ft | 385 kts | 53° |
| 2026-05-06 18:30 | 54.94882 | -5.37713 | 18997 ft | 372 kts | 53° |
| 2026-05-06 18:31 | 54.96317 | -5.34054 | 18999 ft | 363 kts | 53° |
| 2026-05-06 18:31 | 54.97733 | -5.30443 | 18999 ft | 360 kts | 53° |
| 2026-05-06 18:31 | 54.99144 | -5.26850 | 18999 ft | 359 kts | 53° |
| 2026-05-06 18:31 | 55.00552 | -5.23254 | 19008 ft | 359 kts | 53° |
| 2026-05-06 18:32 | 55.01977 | -5.19612 | 19009 ft | 359 kts | 53° |
| 2026-05-06 18:32 | 55.03366 | -5.16067 | 19008 ft | 359 kts | 53° |
| 2026-05-06 18:32 | 55.04793 | -5.12422 | 19008 ft | 359 kts | 53° |
| 2026-05-06 18:32 | 55.06206 | -5.08808 | 19010 ft | 374 kts | 53° |
| 2026-05-06 18:33 | 55.07655 | -5.05088 | 18974 ft | 364 kts | 53° |
| 2026-05-06 18:33 | 55.09051 | -5.01484 | 18836 ft | 353 kts | 53° |
| 2026-05-06 18:33 | 55.10413 | -4.97961 | 18538 ft | 348 kts | 54° |
| 2026-05-06 18:33 | 55.11590 | -4.94278 | 18166 ft | 347 kts | 65° |
| 2026-05-06 18:34 | 55.12545 | -4.90418 | 17769 ft | 345 kts | 65° |
| 2026-05-06 18:34 | 55.13496 | -4.86587 | 17367 ft | 343 kts | 65° |
| 2026-05-06 18:34 | 55.14445 | -4.82777 | 16980 ft | 341 kts | 65° |
| 2026-05-06 18:34 | 55.15391 | -4.78989 | 16608 ft | 339 kts | 65° |
| 2026-05-06 18:35 | 55.16326 | -4.75224 | 16238 ft | 337 kts | 65° |
| 2026-05-06 18:35 | 55.17254 | -4.71482 | 15874 ft | 335 kts | 65° |
| 2026-05-06 18:35 | 55.18175 | -4.67758 | 15536 ft | 333 kts | 65° |
| 2026-05-06 18:35 | 55.19089 | -4.64050 | 15195 ft | 331 kts | 65° |
| 2026-05-06 18:36 | 55.19997 | -4.60368 | 14847 ft | 329 kts | 65° |
| 2026-05-06 18:36 | 55.20900 | -4.56706 | 14509 ft | 327 kts | 66° |
| 2026-05-06 18:36 | 55.21797 | -4.53058 | 14176 ft | 325 kts | 66° |
| 2026-05-06 18:36 | 55.22686 | -4.49428 | 13850 ft | 323 kts | 66° |
| 2026-05-06 18:37 | 55.23567 | -4.45816 | 13483 ft | 321 kts | 66° |
| 2026-05-06 18:37 | 55.24444 | -4.42224 | 13116 ft | 319 kts | 66° |
| 2026-05-06 18:37 | 55.25313 | -4.38662 | 12749 ft | 317 kts | 66° |
| 2026-05-06 18:37 | 55.26174 | -4.35131 | 12392 ft | 314 kts | 66° |
| 2026-05-06 18:38 | 55.27031 | -4.31608 | 12032 ft | 312 kts | 67° |
| 2026-05-06 18:38 | 55.27907 | -4.28150 | 11678 ft | 310 kts | 60° |
| 2026-05-06 18:38 | 55.29240 | -4.25240 | 11334 ft | 305 kts | 39° |
| 2026-05-06 18:38 | 55.31028 | -4.23281 | 10964 ft | 302 kts | 26° |
| 2026-05-06 18:39 | 55.32888 | -4.21584 | 10591 ft | 301 kts | 26° |
| 2026-05-06 18:39 | 55.34745 | -4.19898 | 10222 ft | 300 kts | 26° |
| 2026-05-06 18:39 | 55.36595 | -4.18219 | 9856 ft | 298 kts | 26° |
| 2026-05-06 18:40 | 55.40254 | -4.14882 | 9303 ft | 295 kts | 26° |
| 2026-05-06 18:40 | 55.42072 | -4.13219 | 9058 ft | 293 kts | 26° |
| 2026-05-06 18:40 | 55.43878 | -4.11566 | 8820 ft | 292 kts | 26° |
| 2026-05-06 18:40 | 55.45675 | -4.09915 | 8584 ft | 291 kts | 26° |
| 2026-05-06 18:41 | 55.47461 | -4.08275 | 8343 ft | 288 kts | 27° |
| 2026-05-06 18:41 | 55.49231 | -4.06649 | 8104 ft | 286 kts | 27° |
| 2026-05-06 18:41 | 55.50994 | -4.05025 | 7873 ft | 286 kts | 27° |
| 2026-05-06 18:41 | 55.52750 | -4.03409 | 7637 ft | 283 kts | 27° |
| 2026-05-06 18:42 | 55.54496 | -4.01801 | 7403 ft | 283 kts | 27° |
| 2026-05-06 18:42 | 55.56220 | -4.00210 | 7190 ft | 282 kts | 27° |
| 2026-05-06 18:42 | 55.57954 | -3.98607 | 6954 ft | 280 kts | 28° |
| 2026-05-06 18:42 | 55.59673 | -3.97013 | 6719 ft | 279 kts | 28° |
| 2026-05-06 18:43 | 55.61391 | -3.95422 | 6505 ft | 278 kts | 28° |
| 2026-05-06 18:43 | 55.63095 | -3.93846 | 6262 ft | 276 kts | 28° |
| 2026-05-06 18:43 | 55.64775 | -3.92290 | 6022 ft | 268 kts | 28° |
| 2026-05-06 18:43 | 55.66394 | -3.90788 | 5781 ft | 258 kts | 27° |
| 2026-05-06 18:44 | 55.67955 | -3.89336 | 5566 ft | 249 kts | 27° |
| 2026-05-06 18:44 | 55.69477 | -3.87921 | 5357 ft | 249 kts | 27° |
| 2026-05-06 18:44 | 55.71027 | -3.86478 | 5147 ft | 251 kts | 27° |
| 2026-05-06 18:44 | 55.72539 | -3.85068 | 4938 ft | 242 kts | 28° |
| 2026-05-06 18:45 | 55.74027 | -3.83678 | 4780 ft | 243 kts | 27° |
| 2026-05-06 18:45 | 55.75519 | -3.82284 | 4644 ft | 241 kts | 27° |
| 2026-05-06 18:45 | 55.76987 | -3.80909 | 4517 ft | 235 kts | 27° |
| 2026-05-06 18:45 | 55.78430 | -3.79555 | 4384 ft | 234 kts | 27° |
| 2026-05-06 18:46 | 55.79866 | -3.78212 | 4266 ft | 234 kts | 28° |
| 2026-05-06 18:46 | 55.81263 | -3.76730 | 4250 ft | 234 kts | 43° |
| 2026-05-06 18:46 | 55.82284 | -3.74496 | 4257 ft | 233 kts | 59° |
| 2026-05-06 18:46 | 55.83129 | -3.72032 | 4255 ft | 233 kts | 60° |
| 2026-05-06 18:47 | 55.83965 | -3.69556 | 4144 ft | 234 kts | 60° |
| 2026-05-06 18:47 | 55.84807 | -3.67100 | 3874 ft | 230 kts | 60° |
| 2026-05-06 18:47 | 55.85637 | -3.64683 | 3595 ft | 227 kts | 60° |
| 2026-05-06 18:47 | 55.86444 | -3.62334 | 3279 ft | 215 kts | 60° |
| 2026-05-06 18:48 | 55.87186 | -3.60172 | 2978 ft | 193 kts | 60° |
| 2026-05-06 18:48 | 55.87862 | -3.58196 | 2728 ft | 181 kts | 61° |
| 2026-05-06 18:48 | 55.88490 | -3.56361 | 2512 ft | 164 kts | 61° |
| 2026-05-06 18:48 | 55.89059 | -3.54698 | 2272 ft | 151 kts | 61° |
| 2026-05-06 18:49 | 55.89588 | -3.53149 | 2077 ft | 143 kts | 62° |
| 2026-05-06 18:49 | 55.90097 | -3.51655 | 1877 ft | 140 kts | 62° |
| 2026-05-06 18:49 | 55.90601 | -3.50178 | 1692 ft | 140 kts | 62° |
| 2026-05-06 18:49 | 55.91105 | -3.48700 | 1494 ft | 139 kts | 62° |
| 2026-05-06 18:50 | 55.91606 | -3.47229 | 1296 ft | 138 kts | 62° |
| 2026-05-06 18:50 | 55.92105 | -3.45787 | 1116 ft | 136 kts | 59° |
| 2026-05-06 18:50 | 55.92608 | -3.44383 | 883 ft | 133 kts | 60° |
| 2026-05-06 18:50 | 55.93083 | -3.42979 | 701 ft | 132 kts | 61° |
| 2026-05-06 18:51 | 55.93543 | -3.41567 | 511 ft | 131 kts | 63° |
| 2026-05-06 18:51 | 55.94014 | -3.40177 | 335 ft | 131 kts | 61° |
| 2026-05-06 18:51 | 55.94483 | -3.38794 | 167 ft | 130 kts | 64° |
| 2026-05-06 18:51 | 55.94926 | -3.37465 | 112 ft | 108 kts | 59° |
| 2026-05-06 18:52 | 55.95199 | -3.36661 | 114 ft | 37 kts | 58° |
| 2026-05-06 18:52 | 55.95260 | -3.36451 | 111 ft | 13 kts | 94° |
| 2026-05-06 18:52 | 55.95200 | -3.36362 | 115 ft | 7 kts | 148° |
| 2026-05-06 18:52 | 55.95183 | -3.36342 | 113 ft | 1 kts | 148° |
| 2026-05-06 18:53 | 55.95182 | -3.36342 | 113 ft | 0 kts | 148° |
| 2026-05-06 18:54 | 55.95159 | -3.36316 | 116 ft | 8 kts | 149° |
| 2026-05-06 18:55 | 55.95107 | -3.36361 | 116 ft | 10 kts | 237° |
| 2026-05-06 18:55 | 55.95052 | -3.36387 | 116 ft | 10 kts | 163° |
| 2026-05-06 18:55 | 55.94990 | -3.36468 | 116 ft | 14 kts | 238° |
| 2026-05-06 18:55 | 55.94942 | -3.36609 | 113 ft | 13 kts | 239° |
| 2026-05-06 18:56 | 55.94906 | -3.36667 | 116 ft | 5 kts | 168° |
| 2026-05-06 18:56 | 55.94873 | -3.36627 | 116 ft | 6 kts | 145° |
| 2026-05-06 18:56 | 55.94860 | -3.36611 | 116 ft | 0 kts | 145° |